Time;durP1;ratioP1;P1;durP2;ratioP2;P2;SDS_P1;SDS_P2;PMS_P1;PMS_P2;Temp;Humidity;BMP_temperature;BMP_pressure;BME280_temperature;BME280_humidity;BME280_pressure;Samples;Min_cycle;Max_cycle;Signal;HPM_P1;HPM_P2
2022/02/08 00:01:44;;;;;;;10.68;2.42;;;;;;;;;;5005740;28;20056;-60
2022/02/08 00:04:11;;;;;;;10.68;2.40;;;;;;;;;;4993591;28;20062;-61
2022/02/08 00:06:43;;;;;;;16.08;3.55;;;;;;;;;;5000572;28;20057;-60
2022/02/08 00:09:10;;;;;;;15.32;2.97;;;;;;;;;;4994017;28;20109;-61
2022/02/08 00:11:39;;;;;;;18.17;2.70;;;;;;;;;;5026447;28;20045;-61
2022/02/08 00:14:05;;;;;;;14.55;2.65;;;;;;;;;;5000132;28;20143;-61
2022/02/08 00:16:34;;;;;;;7.57;2.67;;;;;;;;;;5005036;28;20068;-60
2022/02/08 00:19:01;;;;;;;9.98;2.40;;;;;;;;;;5015542;28;20046;-60
2022/02/08 00:21:28;;;;;;;13.40;2.22;;;;;;;;;;5002253;28;20077;-59
2022/02/08 00:23:54;;;;;;;8.15;1.88;;;;;;;;;;4996462;28;20121;-61
2022/02/08 00:26:21;;;;;;;14.25;2.70;;;;;;;;;;5017436;28;20042;-59
2022/02/08 00:28:48;;;;;;;10.93;2.17;;;;;;;;;;5001607;28;21055;-60
2022/02/08 00:31:21;;;;;;;10.85;2.42;;;;;;;;;;5017810;28;20060;-59
2022/02/08 00:33:49;;;;;;;19.75;2.58;;;;;;;;;;5002737;28;20053;-62
2022/02/08 00:36:15;;;;;;;18.50;2.80;;;;;;;;;;4993112;28;20478;-59
2022/02/08 00:38:42;;;;;;;19.30;2.70;;;;;;;;;;5001399;28;20116;-61
2022/02/08 00:41:09;;;;;;;11.20;2.40;;;;;;;;;;4997251;28;20511;-60
2022/02/08 00:43:44;;;;;;;11.85;2.10;;;;;;;;;;4997734;28;20081;-61
2022/02/08 00:46:14;;;;;;;13.60;2.90;;;;;;;;;;5016168;28;20099;-60
2022/02/08 00:48:43;;;;;;;14.27;2.83;;;;;;;;;;5003747;28;20060;-57
2022/02/08 00:51:13;;;;;;;;;;;;;;;;;;4998628;28;20107;-58
2022/02/08 00:53:41;;;;;;;10.43;2.65;;;;;;;;;;4998670;28;19926;-59
2022/02/08 00:56:07;;;;;;;16.10;3.05;;;;;;;;;;4993665;28;20056;-58
2022/02/08 00:58:34;;;;;;;14.57;2.95;;;;;;;;;;5005318;28;20050;-61
2022/02/08 01:01:05;;;;;;;18.33;2.92;;;;;;;;;;5013201;28;20060;-58
2022/02/08 01:03:34;;;;;;;15.95;3.13;;;;;;;;;;5002643;28;20045;-59
2022/02/08 01:06:04;;;;;;;13.85;2.70;;;;;;;;;;4991182;28;20061;-57
2022/02/08 01:08:33;;;;;;;12.57;2.50;;;;;;;;;;4999756;28;20054;-60
2022/02/08 01:11:02;;;;;;;19.27;2.67;;;;;;;;;;5017757;28;20038;-58
2022/02/08 01:13:29;;;;;;;15.68;3.05;;;;;;;;;;5002516;28;20123;-62
2022/02/08 01:15:56;;;;;;;12.90;3.22;;;;;;;;;;5018875;28;20050;-60
2022/02/08 01:18:23;;;;;;;14.65;3.13;;;;;;;;;;5004014;28;20056;-61
2022/02/08 01:20:53;;;;;;;12.38;3.47;;;;;;;;;;5022817;28;20136;-61
2022/02/08 01:23:19;;;;;;;11.90;3.55;;;;;;;;;;4995290;28;20064;-62
2022/02/08 01:25:49;;;;;;;15.80;3.40;;;;;;;;;;5000909;28;20140;-61
2022/02/08 01:28:25;;;;;;;17.15;4.50;;;;;;;;;;4991608;28;20054;-60
2022/02/08 01:31:01;;;;;;;16.25;4.07;;;;;;;;;;5000243;28;20054;-57
2022/02/08 01:33:53;;;;;;;9.73;3.03;;;;;;;;;;4995672;28;20060;-59
2022/02/08 01:36:43;;;;;;;12.45;3.28;;;;;;;;;;5002594;28;20054;-61
2022/02/08 01:39:16;;;;;;;13.13;3.65;;;;;;;;;;4996235;28;20154;-61
2022/02/08 01:42:15;;;;;;;11.55;4.10;;;;;;;;;;5004297;28;20069;-58
2022/02/08 01:44:58;;;;;;;11.85;3.97;;;;;;;;;;5019923;28;20062;-60
2022/02/08 01:47:29;;;;;;;13.43;4.32;;;;;;;;;;4992700;28;20063;-61
2022/02/08 01:50:07;;;;;;;10.73;3.38;;;;;;;;;;5019577;28;20096;-61
2022/02/08 01:52:33;;;;;;;12.18;3.67;;;;;;;;;;4991862;28;20049;-60
2022/02/08 01:55:00;;;;;;;9.48;3.38;;;;;;;;;;5022486;28;20144;-61
2022/02/08 01:57:26;;;;;;;10.90;3.55;;;;;;;;;;4997860;28;20477;-58
2022/02/08 01:59:54;;;;;;;9.82;3.97;;;;;;;;;;4999179;28;20144;-58
2022/02/08 02:02:21;;;;;;;10.50;3.42;;;;;;;;;;5002101;28;20064;-62
2022/02/08 02:04:48;;;;;;;8.73;4.05;;;;;;;;;;5017196;28;20085;-58
2022/02/08 02:07:16;;;;;;;16.80;4.90;;;;;;;;;;5020272;28;20054;-58
2022/02/08 02:09:45;;;;;;;11.32;3.70;;;;;;;;;;4993101;28;20057;-58
2022/02/08 02:12:12;;;;;;;13.98;4.20;;;;;;;;;;5017608;28;20471;-61
2022/02/08 02:14:40;;;;;;;7.28;3.35;;;;;;;;;;4991296;28;20050;-60
2022/02/08 02:17:09;;;;;;;9.82;3.47;;;;;;;;;;5024522;28;20050;-62
2022/02/08 02:19:36;;;;;;;15.27;4.57;;;;;;;;;;4997354;28;20053;-56
2022/02/08 02:22:06;;;;;;;9.65;4.22;;;;;;;;;;5003730;28;20411;-61
2022/02/08 02:24:34;;;;;;;17.50;5.30;;;;;;;;;;4991890;28;20081;-60
2022/02/08 02:27:00;;;;;;;13.55;5.57;;;;;;;;;;5001150;28;20054;-61
2022/02/08 02:29:29;;;;;;;12.00;5.75;;;;;;;;;;5015249;28;20073;-57
2022/02/08 02:31:59;;;;;;;14.80;5.07;;;;;;;;;;5001789;28;20042;-60
2022/02/08 02:34:25;;;;;;;14.50;4.22;;;;;;;;;;5012321;28;20095;-60
2022/02/08 02:36:53;;;;;;;10.40;4.40;;;;;;;;;;5016237;28;20046;-60
2022/02/08 02:39:21;;;;;;;15.60;5.25;;;;;;;;;;4990739;28;20054;-60
2022/02/08 02:41:57;;;;;;;17.08;4.88;;;;;;;;;;5002048;28;20077;-61
2022/02/08 02:44:24;;;;;;;18.92;5.60;;;;;;;;;;4992728;28;20101;-61
2022/02/08 02:46:51;;;;;;;21.75;6.07;;;;;;;;;;5003481;28;20074;-58
2022/02/08 02:49:18;;;;;;;16.85;6.25;;;;;;;;;;5019321;28;20058;-62
2022/02/08 02:52:07;;;;;;;20.13;5.97;;;;;;;;;;4996382;28;20061;-59
2022/02/08 02:54:33;;;;;;;10.13;5.00;;;;;;;;;;4913966;29;20051;-61
2022/02/08 02:57:01;;;;;;;14.00;5.68;;;;;;;;;;5003937;28;20062;-57
2022/02/08 02:59:30;;;;;;;16.70;6.90;;;;;;;;;;5002661;28;20055;-61
2022/02/08 03:02:24;;;;;;;18.38;7.43;;;;;;;;;;4985854;28;20054;-60
2022/02/08 03:04:57;;;;;;;17.70;7.93;;;;;;;;;;4950651;28;20055;-57
2022/02/08 03:21:06;;;;;;;15.63;6.57;;;;;;;;;;4948397;28;20102;-62
2022/02/08 03:23:32;;;;;;;;;;;;;;;;;;4967963;28;20079;-61
2022/02/08 03:25:59;;;;;;;23.90;7.00;;;;;;;;;;4977976;28;19926;-61
2022/02/08 03:28:27;;;;;;;20.67;8.32;;;;;;;;;;4959452;28;20097;-61
2022/02/08 03:30:54;;;;;;;25.95;8.15;;;;;;;;;;4985810;28;20054;-60
2022/02/08 03:33:22;;;;;;;20.83;8.45;;;;;;;;;;4980984;28;20047;-62
2022/02/08 03:35:50;;;;;;;24.40;9.10;;;;;;;;;;4969936;28;20126;-59
2022/02/08 03:38:19;;;;;;;22.83;7.90;;;;;;;;;;4963859;28;20055;-61
2022/02/08 03:40:51;;;;;;;21.48;6.65;;;;;;;;;;4969795;28;20058;-61
2022/02/08 03:43:28;;;;;;;25.02;9.73;;;;;;;;;;4964659;28;20042;-60
2022/02/08 03:45:58;;;;;;;15.40;6.70;;;;;;;;;;4970094;28;20130;-60
2022/02/08 03:48:27;;;;;;;17.52;7.43;;;;;;;;;;4950907;28;20055;-62
2022/02/08 03:51:05;;;;;;;;;;;;;;;;;;4951027;28;20110;-63
2022/02/08 03:53:32;;;;;;;15.73;6.70;;;;;;;;;;4945395;28;20020;-58
2022/02/08 03:55:58;;;;;;;18.98;7.13;;;;;;;;;;4951142;28;20058;-61
2022/02/08 03:58:25;;;;;;;24.23;8.45;;;;;;;;;;4973508;28;20075;-58
2022/02/08 04:01:06;;;;;;;18.27;8.40;;;;;;;;;;4970121;28;20051;-57
2022/02/08 04:03:37;;;;;;;22.60;8.25;;;;;;;;;;4979078;28;20124;-61
2022/02/08 04:06:05;;;;;;;20.13;7.00;;;;;;;;;;4986836;28;20034;-58
2022/02/08 04:08:34;;;;;;;16.70;7.30;;;;;;;;;;4983782;28;20065;-58
2022/02/08 04:11:01;;;;;;;20.08;8.15;;;;;;;;;;4988658;28;20061;-57
2022/02/08 04:13:33;;;;;;;19.88;7.13;;;;;;;;;;4990641;28;20052;-58
2022/02/08 04:16:08;;;;;;;20.73;7.30;;;;;;;;;;5024592;28;20066;-60
2022/02/08 04:18:57;;;;;;;26.05;8.10;;;;;;;;;;5000069;28;20073;-59
2022/02/08 04:32:36;;;;;;;21.63;7.22;;;;;;;;;;5011523;28;20058;-61
2022/02/08 04:35:23;;;;;;;21.77;5.80;;;;;;;;;;5005139;28;20052;-57
2022/02/08 04:38:05;;;;;;;16.73;5.75;;;;;;;;;;5028688;28;20054;-58
2022/02/08 04:43:35;;;;;;;12.25;5.40;;;;;;;;;;4988306;28;20050;-59
2022/02/08 04:46:09;;;;;;;19.77;6.28;;;;;;;;;;4999285;28;20047;-58
2022/02/08 04:48:51;;;;;;;22.40;6.57;;;;;;;;;;4992076;28;20199;-55
2022/02/08 04:51:22;;;;;;;20.48;5.35;;;;;;;;;;5004610;28;20057;-55
2022/02/08 04:53:56;;;;;;;17.02;5.85;;;;;;;;;;5011778;28;20053;-54
2022/02/08 04:56:34;;;;;;;17.98;5.40;;;;;;;;;;5007764;28;20137;-57
2022/02/08 04:59:14;;;;;;;12.82;5.38;;;;;;;;;;5011965;28;20057;-52
2022/02/08 05:02:06;;;;;;;15.27;5.28;;;;;;;;;;4987544;28;20053;-57
2022/02/08 05:27:02;;;;;;;13.05;4.32;;;;;;;;;;5020845;28;20119;-56
2022/02/08 05:43:19;;;;;;;15.02;4.13;;;;;;;;;;4975578;28;20046;-56
2022/02/08 05:46:05;;;;;;;10.60;3.70;;;;;;;;;;4991046;28;20085;-57
2022/02/08 05:48:38;;;;;;;13.57;3.75;;;;;;;;;;5004024;28;20057;-57
2022/02/08 05:51:13;;;;;;;22.88;4.07;;;;;;;;;;5009907;28;20046;-62
2022/02/08 05:53:45;;;;;;;9.23;3.30;;;;;;;;;;5005279;28;20050;-61
2022/02/08 05:56:14;;;;;;;12.50;4.05;;;;;;;;;;5027546;28;20054;-59
2022/02/08 05:58:42;;;;;;;13.52;3.75;;;;;;;;;;4990010;28;20062;-60
2022/02/08 06:01:12;;;;;;;15.38;3.50;;;;;;;;;;4991032;28;20105;-58
2022/02/08 06:03:38;;;;;;;12.10;3.60;;;;;;;;;;4999809;28;20129;-55
2022/02/08 06:06:06;;;;;;;12.38;3.88;;;;;;;;;;5010627;28;20041;-55
2022/02/08 06:08:32;;;;;;;11.88;3.67;;;;;;;;;;4994280;28;20108;-55
2022/02/08 06:11:12;;;;;;;12.20;3.45;;;;;;;;;;4991433;28;20050;-59
2022/02/08 06:13:41;;;;;;;10.20;3.30;;;;;;;;;;4989003;28;20104;-55
2022/02/08 06:16:15;;;;;;;7.43;2.97;;;;;;;;;;4991113;28;20050;-59
2022/02/08 06:18:42;;;;;;;12.98;3.78;;;;;;;;;;4987285;28;20049;-57
2022/02/08 06:21:11;;;;;;;11.15;3.40;;;;;;;;;;4991062;28;20135;-61
2022/02/08 06:23:38;;;;;;;8.93;2.90;;;;;;;;;;4985364;28;20120;-57
2022/02/08 06:26:05;;;;;;;11.90;3.50;;;;;;;;;;4990306;28;20046;-59
2022/02/08 06:28:31;;;;;;;9.52;3.25;;;;;;;;;;5002843;28;20099;-61
2022/02/08 06:31:01;;;;;;;10.18;2.85;;;;;;;;;;5009653;28;20064;-55
2022/02/08 06:33:27;;;;;;;11.75;3.40;;;;;;;;;;5002895;28;20061;-58
2022/02/08 06:35:53;;;;;;;7.72;2.45;;;;;;;;;;5009266;28;20076;-61
2022/02/08 06:38:20;;;;;;;10.73;2.55;;;;;;;;;;5004459;28;20046;-59
2022/02/08 06:40:50;;;;;;;15.25;2.67;;;;;;;;;;4986625;28;20049;-60
2022/02/08 06:43:18;;;;;;;8.02;2.28;;;;;;;;;;4987927;28;20065;-61
2022/02/08 06:45:44;;;;;;;8.20;2.45;;;;;;;;;;5001224;28;20161;-61
2022/02/08 06:48:12;;;;;;;8.98;2.50;;;;;;;;;;5007674;28;20084;-60
2022/02/08 06:50:40;;;;;;;16.10;2.92;;;;;;;;;;5002255;28;20057;-61
2022/02/08 06:53:07;;;;;;;13.18;2.63;;;;;;;;;;5008059;28;20050;-62
2022/02/08 06:55:34;;;;;;;10.18;2.50;;;;;;;;;;4989819;28;20137;-61
2022/02/08 06:58:03;;;;;;;13.50;3.70;;;;;;;;;;4989061;28;20046;-59
2022/02/08 07:00:34;;;;;;;11.90;2.47;;;;;;;;;;4985530;28;20058;-61
2022/02/08 07:03:03;;;;;;;14.90;2.80;;;;;;;;;;4989757;28;20113;-58
2022/02/08 07:05:31;;;;;;;10.65;2.40;;;;;;;;;;4998563;28;20077;-61
2022/02/08 07:07:57;;;;;;;6.33;2.20;;;;;;;;;;5018443;28;20050;-60
2022/02/08 07:10:31;;;;;;;10.10;2.25;;;;;;;;;;4993019;28;20304;-61
2022/02/08 07:12:58;;;;;;;9.63;2.33;;;;;;;;;;5001794;28;20057;-62
2022/02/08 07:15:25;;;;;;;16.98;2.58;;;;;;;;;;4993696;28;20054;-62
2022/02/08 07:17:51;;;;;;;7.65;2.08;;;;;;;;;;4997134;28;20084;-62
2022/02/08 07:20:19;;;;;;;10.80;2.30;;;;;;;;;;5010881;28;20097;-62
2022/02/08 07:22:47;;;;;;;9.32;2.00;;;;;;;;;;4997833;28;20050;-62
2022/02/08 07:25:13;;;;;;;11.68;2.15;;;;;;;;;;4993174;28;20054;-60
2022/02/08 07:27:40;;;;;;;7.35;1.73;;;;;;;;;;4995579;28;20054;-58
2022/02/08 07:30:10;;;;;;;10.13;1.73;;;;;;;;;;4997521;28;20049;-61
2022/02/08 07:32:38;;;;;;;8.50;1.75;;;;;;;;;;4993857;28;20116;-59
2022/02/08 07:35:25;;;;;;;9.30;1.83;;;;;;;;;;5015633;28;20054;-60
2022/02/08 07:37:58;;;;;;;11.15;1.63;;;;;;;;;;5009030;28;20050;-56
2022/02/08 07:40:42;;;;;;;12.40;1.70;;;;;;;;;;5013497;28;20065;-57
2022/02/08 07:43:09;;;;;;;7.72;1.45;;;;;;;;;;4995856;28;20055;-59
2022/02/08 07:45:35;;;;;;;9.52;1.67;;;;;;;;;;5017277;28;20054;-61
2022/02/08 07:48:02;;;;;;;3.40;1.40;;;;;;;;;;5011683;28;20471;-57
2022/02/08 07:50:38;;;;;;;7.35;1.45;;;;;;;;;;5016334;28;20051;-60
2022/02/08 07:53:09;;;;;;;6.80;1.63;;;;;;;;;;5015441;28;20054;-58
2022/02/08 07:55:36;;;;;;;6.63;1.90;;;;;;;;;;5004913;28;20054;-58
2022/02/08 07:58:03;;;;;;;15.52;3.75;;;;;;;;;;5000975;28;20057;-57
2022/02/08 08:00:31;;;;;;;12.32;1.80;;;;;;;;;;5001493;28;20104;-59
2022/02/08 08:02:58;;;;;;;6.35;1.27;;;;;;;;;;4996711;28;20104;-59
2022/02/08 08:05:25;;;;;;;12.23;1.58;;;;;;;;;;5002213;28;20054;-58
2022/02/08 08:07:52;;;;;;;7.05;1.02;;;;;;;;;;4995758;28;20045;-55
2022/02/08 08:10:26;;;;;;;10.88;1.33;;;;;;;;;;5002200;28;20085;-57
2022/02/08 08:12:54;;;;;;;13.45;1.33;;;;;;;;;;4995026;28;20057;-59
2022/02/08 08:15:34;;;;;;;7.78;1.27;;;;;;;;;;5002194;28;20058;-61
2022/02/08 08:18:12;;;;;;;10.70;1.10;;;;;;;;;;4996908;28;20084;-60
2022/02/08 08:20:43;;;;;;;7.03;1.08;;;;;;;;;;5000845;28;20061;-60
2022/02/08 08:23:10;;;;;;;11.82;1.77;;;;;;;;;;5002101;28;20123;-55
2022/02/08 08:25:38;;;;;;;4.72;1.40;;;;;;;;;;5006140;28;20088;-58
2022/02/08 08:28:06;;;;;;;7.80;1.75;;;;;;;;;;4997670;28;20054;-56
2022/02/08 08:30:39;;;;;;;5.65;1.17;;;;;;;;;;5022419;28;20066;-61
2022/02/08 08:33:07;;;;;;;8.65;1.58;;;;;;;;;;5011313;28;20137;-59
2022/02/08 08:35:35;;;;;;;2.25;0.80;;;;;;;;;;5002366;28;20117;-62
2022/02/08 08:38:04;;;;;;;6.27;1.83;;;;;;;;;;4997591;28;20114;-61
2022/02/08 08:40:46;;;;;;;12.52;1.45;;;;;;;;;;4999290;28;20895;-58
2022/02/08 08:49:05;;;;;;;7.38;1.20;;;;;;;;;;5012036;28;20041;-61
2022/02/08 08:51:41;;;;;;;9.20;1.13;;;;;;;;;;5019727;28;20109;-61
2022/02/08 08:54:08;;;;;;;5.28;1.00;;;;;;;;;;4997257;28;20113;-60
2022/02/08 08:56:35;;;;;;;6.50;0.98;;;;;;;;;;5003337;28;20057;-57
2022/02/08 08:59:03;;;;;;;6.45;1.10;;;;;;;;;;4995728;28;20056;-60
2022/02/08 09:01:48;;;;;;;8.20;1.65;;;;;;;;;;5005582;28;20053;-61
2022/02/08 09:04:18;;;;;;;9.77;1.33;;;;;;;;;;5008392;28;20058;-60
2022/02/08 09:06:45;;;;;;;3.83;1.02;;;;;;;;;;5005417;28;20111;-62
2022/02/08 09:09:15;;;;;;;5.95;1.10;;;;;;;;;;4997612;28;20147;-62
2022/02/08 09:11:55;;;;;;;6.20;1.13;;;;;;;;;;5005647;28;20100;-61
2022/02/08 09:14:37;;;;;;;2.05;0.73;;;;;;;;;;4997264;28;20046;-60
2022/02/08 09:17:19;;;;;;;6.82;0.98;;;;;;;;;;5004406;28;20077;-62
2022/02/08 09:20:07;;;;;;;4.40;0.93;;;;;;;;;;4995442;28;20066;-60
2022/02/08 09:25:46;;;;;;;8.45;0.90;;;;;;;;;;4992329;28;20042;-62
2022/02/08 09:28:21;;;;;;;10.93;1.00;;;;;;;;;;5001059;28;20061;-63
2022/02/08 09:31:00;;;;;;;4.03;0.80;;;;;;;;;;4993873;28;20105;-54
2022/02/08 09:33:28;;;;;;;7.53;1.25;;;;;;;;;;5003883;28;20090;-55
2022/02/08 09:35:55;;;;;;;6.82;1.10;;;;;;;;;;4996635;28;20049;-56
2022/02/08 09:38:22;;;;;;;7.47;0.90;;;;;;;;;;4997580;28;20105;-57
2022/02/08 09:41:08;;;;;;;13.68;1.13;;;;;;;;;;5015739;28;20042;-59
2022/02/08 09:43:36;;;;;;;6.90;1.30;;;;;;;;;;5002668;28;20052;-57
2022/02/08 09:46:05;;;;;;;6.23;1.07;;;;;;;;;;5016654;28;20069;-60
2022/02/08 09:48:40;;;;;;;9.05;0.80;;;;;;;;;;5000124;28;20314;-56
2022/02/08 09:51:17;;;;;;;10.82;0.88;;;;;;;;;;4998602;28;20050;-57
2022/02/08 09:53:43;;;;;;;5.88;1.00;;;;;;;;;;4996452;28;20054;-57
2022/02/08 09:56:11;;;;;;;3.13;0.57;;;;;;;;;;4999791;28;20537;-61
2022/02/08 09:58:38;;;;;;;7.30;0.75;;;;;;;;;;5002378;28;20049;-59
2022/02/08 10:01:12;;;;;;;12.85;2.67;;;;;;;;;;5001244;28;20060;-62
2022/02/08 10:03:51;;;;;;;8.43;1.75;;;;;;;;;;5003406;28;20065;-55
2022/02/08 10:06:18;;;;;;;12.07;1.90;;;;;;;;;;5002000;28;20050;-55
2022/02/08 10:08:45;;;;;;;10.70;1.35;;;;;;;;;;5010969;28;20049;-59
2022/02/08 10:11:26;;;;;;;2.92;0.77;;;;;;;;;;5000598;28;20049;-60
2022/02/08 10:14:04;;;;;;;7.20;1.15;;;;;;;;;;4997995;28;20146;-56
2022/02/08 10:22:18;;;;;;;5.40;0.80;;;;;;;;;;5009445;28;20058;-57
2022/02/08 10:24:49;;;;;;;13.77;1.02;;;;;;;;;;5006561;28;20112;-56
2022/02/08 10:27:26;;;;;;;7.82;0.82;;;;;;;;;;5013672;28;20108;-60
2022/02/08 10:30:12;;;;;;;4.72;1.20;;;;;;;;;;4999252;28;20050;-58
2022/02/08 10:38:17;;;;;;;10.80;1.05;;;;;;;;;;4995765;28;20058;-55
2022/02/08 10:43:37;;;;;;;8.25;1.02;;;;;;;;;;4995145;28;20061;-58
2022/02/08 10:46:04;;;;;;;7.07;1.23;;;;;;;;;;5000176;28;20046;-58
2022/02/08 10:48:30;;;;;;;6.47;1.50;;;;;;;;;;4996378;28;20128;-54
2022/02/08 10:51:12;;;;;;;9.45;0.98;;;;;;;;;;5003860;28;20049;-58
2022/02/08 10:53:51;;;;;;;7.38;0.82;;;;;;;;;;5014267;28;20054;-56
2022/02/08 10:56:20;;;;;;;8.63;0.95;;;;;;;;;;4998812;28;20412;-58
2022/02/08 10:58:53;;;;;;;5.78;0.80;;;;;;;;;;4996208;28;20056;-58
2022/02/08 11:01:30;;;;;;;3.85;0.75;;;;;;;;;;5002430;28;20097;-57
2022/02/08 11:04:02;;;;;;;5.65;1.17;;;;;;;;;;5015688;28;20066;-57
2022/02/08 11:06:36;;;;;;;9.02;1.13;;;;;;;;;;5001254;28;20050;-59
2022/02/08 11:09:17;;;;;;;6.75;0.77;;;;;;;;;;4997223;28;20122;-60
2022/02/08 11:14:59;;;;;;;4.03;0.73;;;;;;;;;;4989531;28;20055;-57
2022/02/08 11:20:30;;;;;;;5.10;0.80;;;;;;;;;;5014528;28;20054;-61
2022/02/08 11:23:01;;;;;;;4.03;0.50;;;;;;;;;;4998869;28;20053;-59
2022/02/08 11:25:30;;;;;;;5.80;0.70;;;;;;;;;;4996960;28;20065;-60
2022/02/08 11:28:11;;;;;;;2.50;0.82;;;;;;;;;;5024624;28;20112;-60
2022/02/08 11:30:47;;;;;;;5.63;0.85;;;;;;;;;;5018445;28;20104;-59
2022/02/08 11:47:48;;;;;;;5.82;0.98;;;;;;;;;;4997881;28;20054;-57
2022/02/08 11:53:22;;;;;;;8.13;1.25;;;;;;;;;;5003737;28;20061;-60
2022/02/08 11:58:51;;;;;;;2.78;0.60;;;;;;;;;;4983531;28;20078;-59
2022/02/08 12:02:02;;;;;;;7.22;0.85;;;;;;;;;;4998488;28;20041;-56
2022/02/08 12:04:40;;;;;;;13.77;2.28;;;;;;;;;;5002878;28;20059;-57
2022/02/08 12:07:14;;;;;;;9.27;1.17;;;;;;;;;;5017844;28;20118;-57
2022/02/08 12:09:46;;;;;;;6.63;0.85;;;;;;;;;;5016577;28;20100;-58
2022/02/08 12:12:54;;;;;;;3.92;0.73;;;;;;;;;;4998634;28;20112;-60
2022/02/08 12:32:17;;;;;;;4.18;0.65;;;;;;;;;;5000451;28;20114;-57
2022/02/08 12:35:07;;;;;;;4.85;0.70;;;;;;;;;;5001936;28;20058;-60
2022/02/08 12:49:11;;;;;;;6.63;1.23;;;;;;;;;;4996213;28;20055;-58
2022/02/08 12:54:33;;;;;;;7.35;0.90;;;;;;;;;;4994739;28;20057;-58
2022/02/08 12:57:11;;;;;;;4.82;1.00;;;;;;;;;;5002400;28;20050;-60
2022/02/08 12:59:52;;;;;;;5.97;0.73;;;;;;;;;;5018451;28;20062;-57
2022/02/08 13:05:36;;;;;;;8.98;1.10;;;;;;;;;;4991625;28;20046;-58
2022/02/08 13:32:12;;;;;;;9.57;1.00;;;;;;;;;;4992764;28;20038;-57
2022/02/08 14:03:37;;;;;;;5.85;0.98;;;;;;;;;;5002015;28;20053;-58
2022/02/08 14:09:15;;;;;;;10.10;1.08;;;;;;;;;;4990710;28;20061;-60
2022/02/08 14:12:03;;;;;;;5.07;0.90;;;;;;;;;;4996419;28;20116;-61
2022/02/08 14:19:51;;;;;;;8.70;0.88;;;;;;;;;;4999087;28;20054;-61
2022/02/08 14:22:31;;;;;;;8.25;1.30;;;;;;;;;;4995365;28;20073;-61
2022/02/08 14:25:17;;;;;;;5.90;1.00;;;;;;;;;;5007021;28;20073;-62
2022/02/08 14:30:38;;;;;;;1.65;0.47;;;;;;;;;;5023524;28;20048;-58
2022/02/08 14:33:23;;;;;;;4.20;0.68;;;;;;;;;;5006119;28;20142;-61
2022/02/08 14:36:21;;;;;;;5.00;1.00;;;;;;;;;;5009171;28;20053;-61
2022/02/08 15:06:50;;;;;;;6.00;0.60;;;;;;;;;;4933907;29;20085;-62
2022/02/08 15:09:23;;;;;;;3.83;0.77;;;;;;;;;;4968191;28;20069;-62
2022/02/08 15:12:07;;;;;;;5.28;0.63;;;;;;;;;;4989685;28;20055;-59
2022/02/08 15:14:39;;;;;;;2.63;0.70;;;;;;;;;;4995370;28;20064;-62
2022/02/08 15:17:06;;;;;;;5.15;0.65;;;;;;;;;;5010095;28;20061;-62
2022/02/08 15:19:34;;;;;;;5.95;0.63;;;;;;;;;;4996761;28;20050;-62
2022/02/08 15:22:02;;;;;;;4.82;0.90;;;;;;;;;;4990297;28;20062;-61
2022/02/08 15:24:28;;;;;;;9.93;1.08;;;;;;;;;;4990341;28;20125;-61
2022/02/08 15:26:55;;;;;;;4.60;0.77;;;;;;;;;;5002692;28;20046;-62
2022/02/08 15:29:21;;;;;;;3.88;0.60;;;;;;;;;;4986091;28;20078;-62
2022/02/08 15:32:01;;;;;;;8.00;1.00;;;;;;;;;;5006616;28;20078;-60
2022/02/08 15:34:28;;;;;;;3.63;0.60;;;;;;;;;;4988677;28;20057;-61
2022/02/08 15:36:55;;;;;;;3.28;0.82;;;;;;;;;;5009218;28;20133;-60
2022/02/08 15:39:22;;;;;;;3.92;0.70;;;;;;;;;;5004931;28;20053;-59
2022/02/08 15:41:56;;;;;;;9.23;2.42;;;;;;;;;;4989095;28;20082;-62
2022/02/08 15:44:25;;;;;;;5.35;1.73;;;;;;;;;;4989898;28;20492;-62
2022/02/08 15:46:53;;;;;;;4.90;0.90;;;;;;;;;;4969439;28;20157;-63
2022/02/08 15:49:21;;;;;;;3.58;0.70;;;;;;;;;;4989464;28;20059;-61
2022/02/08 15:51:55;;;;;;;7.35;1.20;;;;;;;;;;4984249;28;20054;-64
2022/02/08 15:54:25;;;;;;;2.70;0.77;;;;;;;;;;4988324;28;20050;-63
2022/02/08 16:05:16;;;;;;;6.25;0.77;;;;;;;;;;4999255;28;20054;-61
2022/02/08 16:07:52;;;;;;;5.87;1.10;;;;;;;;;;4994184;28;20058;-62
2022/02/08 16:10:25;;;;;;;4.95;0.95;;;;;;;;;;5016732;28;20371;-63
2022/02/08 16:13:11;;;;;;;7.25;1.00;;;;;;;;;;4993966;28;20060;-62
2022/02/08 16:15:52;;;;;;;4.28;0.90;;;;;;;;;;5003443;28;20109;-64
2022/02/08 16:18:26;;;;;;;6.05;0.80;;;;;;;;;;5003515;28;20050;-63
2022/02/08 16:21:25;;;;;;;5.53;0.75;;;;;;;;;;5002783;28;20064;-63
2022/02/08 16:24:07;;;;;;;;;;;;;;;;;;5004053;28;20112;-63
2022/02/08 16:29:48;;;;;;;6.03;0.63;;;;;;;;;;4998298;28;20109;-63
2022/02/08 16:46:12;;;;;;;13.75;4.07;;;;;;;;;;4999241;28;20073;-63
2022/02/08 16:54:42;;;;;;;;;;;;;;;;;;5012079;28;20055;-63
2022/02/08 16:57:15;;;;;;;2.50;0.80;;;;;;;;;;5005512;28;19948;-61
2022/02/08 16:59:45;;;;;;;4.57;0.90;;;;;;;;;;4998507;28;20845;-62
2022/02/08 17:02:18;;;;;;;5.10;0.80;;;;;;;;;;5020945;28;20082;-62
2022/02/08 17:04:44;;;;;;;2.85;1.00;;;;;;;;;;4997488;28;20120;-62
2022/02/08 17:07:11;;;;;;;1.48;0.75;;;;;;;;;;5018166;28;20058;-61
2022/02/08 17:09:45;;;;;;;6.20;0.90;;;;;;;;;;4998336;28;20050;-62
2022/02/08 17:12:17;;;;;;;4.57;0.55;;;;;;;;;;5023437;28;20058;-61
2022/02/08 17:15:03;;;;;;;4.15;1.00;;;;;;;;;;4997838;28;20165;-62
2022/02/08 17:18:17;;;;;;;6.85;1.20;;;;;;;;;;5001632;28;20054;-60
2022/02/08 17:34:52;;;;;;;3.55;0.80;;;;;;;;;;4991936;28;20049;-61
2022/02/08 17:46:16;;;;;;;4.22;0.90;;;;;;;;;;4940844;28;20051;-63
2022/02/08 17:48:44;;;;;;;3.38;0.80;;;;;;;;;;4989118;28;20141;-63
2022/02/08 17:51:11;;;;;;;1.23;0.70;;;;;;;;;;4991049;28;20045;-62
2022/02/08 17:53:38;;;;;;;2.63;0.80;;;;;;;;;;5000788;28;20303;-63
2022/02/08 17:56:05;;;;;;;5.10;0.90;;;;;;;;;;4986710;28;20067;-60
2022/02/08 17:58:33;;;;;;;4.10;0.80;;;;;;;;;;5004188;28;20050;-63
2022/02/08 18:01:01;;;;;;;7.30;1.40;;;;;;;;;;4995691;28;20139;-58
2022/02/08 18:03:27;;;;;;;8.90;2.80;;;;;;;;;;5018217;28;20061;-63
2022/02/08 18:05:55;;;;;;;6.55;1.70;;;;;;;;;;4995753;28;20050;-63
2022/02/08 18:08:23;;;;;;;3.97;1.33;;;;;;;;;;5020583;28;20101;-63
2022/02/08 18:10:55;;;;;;;4.30;0.88;;;;;;;;;;5013611;28;20046;-59
2022/02/08 18:13:22;;;;;;;2.78;1.00;;;;;;;;;;5003876;28;20133;-62
2022/02/08 18:15:48;;;;;;;1.67;0.80;;;;;;;;;;5015006;28;20108;-63
2022/02/08 18:18:25;;;;;;;2.40;0.82;;;;;;;;;;5003397;28;20054;-62
2022/02/08 18:21:08;;;;;;;3.83;0.80;;;;;;;;;;4996700;28;20054;-61
2022/02/08 19:07:38;;;;;;;4.18;1.20;;;;;;;;;;4993497;28;20054;-62
2022/02/08 19:13:21;;;;;;;2.78;0.95;;;;;;;;;;4954921;28;20273;-59
2022/02/08 19:16:01;;;;;;;6.00;1.42;;;;;;;;;;5002792;28;20141;-62
2022/02/08 19:18:44;;;;;;;1.95;1.20;;;;;;;;;;4996785;28;20073;-58
2022/02/08 19:21:33;;;;;;;3.60;1.30;;;;;;;;;;4997907;28;20061;-63
2022/02/08 19:24:00;;;;;;;4.75;1.50;;;;;;;;;;5009899;28;20066;-61
2022/02/08 19:26:28;;;;;;;3.42;1.20;;;;;;;;;;5000278;28;20503;-62
2022/02/08 19:28:54;;;;;;;2.80;1.40;;;;;;;;;;5013427;28;20050;-60
2022/02/08 19:31:21;;;;;;;3.70;1.55;;;;;;;;;;5004916;28;20324;-59
2022/02/08 19:33:48;;;;;;;6.25;1.75;;;;;;;;;;4992539;28;20054;-61
2022/02/08 19:36:14;;;;;;;7.05;1.50;;;;;;;;;;5000732;28;20104;-59
2022/02/08 19:38:43;;;;;;;5.82;1.58;;;;;;;;;;4987957;28;20061;-60
2022/02/08 19:41:13;;;;;;;4.65;1.60;;;;;;;;;;5003820;28;20066;-61
2022/02/08 19:43:42;;;;;;;7.78;1.60;;;;;;;;;;5000650;28;20054;-63
2022/02/08 19:46:09;;;;;;;6.32;1.95;;;;;;;;;;4986597;28;20054;-59
2022/02/08 19:48:36;;;;;;;6.10;1.67;;;;;;;;;;5004060;28;20054;-59
2022/02/08 19:51:05;;;;;;;5.22;1.65;;;;;;;;;;4999315;28;20120;-61
2022/02/08 19:53:33;;;;;;;8.88;2.95;;;;;;;;;;5015320;28;20090;-62
2022/02/08 19:56:08;;;;;;;13.50;5.50;;;;;;;;;;4994253;28;20137;-61
2022/02/08 19:58:35;;;;;;;8.35;3.00;;;;;;;;;;4997092;28;20077;-62
2022/02/08 20:01:08;;;;;;;4.75;2.03;;;;;;;;;;5013293;28;20050;-62
2022/02/08 20:03:39;;;;;;;5.90;1.75;;;;;;;;;;4997528;28;20074;-60
2022/02/08 20:06:06;;;;;;;4.07;1.42;;;;;;;;;;4997669;28;20128;-61
2022/02/08 20:08:32;;;;;;;9.05;2.13;;;;;;;;;;5005846;28;20050;-61
2022/02/08 20:10:59;;;;;;;8.10;1.70;;;;;;;;;;5018817;28;20046;-61
2022/02/08 20:13:26;;;;;;;3.72;1.52;;;;;;;;;;5001577;28;20100;-60
2022/02/08 20:15:54;;;;;;;4.63;1.85;;;;;;;;;;5003393;28;20454;-62
2022/02/08 20:18:22;;;;;;;4.90;1.50;;;;;;;;;;4999080;28;20416;-60
2022/02/08 20:21:02;;;;;;;;;;;;;;;;;;5017414;28;20061;-59
2022/02/08 20:23:29;;;;;;;3.63;1.70;;;;;;;;;;5001840;28;19947;-60
2022/02/08 20:25:56;;;;;;;6.43;1.88;;;;;;;;;;5022969;28;20056;-58
2022/02/08 20:28:26;;;;;;;2.47;1.40;;;;;;;;;;5023817;28;20410;-60
2022/02/08 20:31:00;;;;;;;7.97;1.55;;;;;;;;;;4993755;28;20050;-59
2022/02/08 20:33:28;;;;;;;8.23;1.80;;;;;;;;;;5020051;28;20050;-62
2022/02/08 20:35:55;;;;;;;7.53;1.40;;;;;;;;;;4999592;28;20054;-58
2022/02/08 20:38:21;;;;;;;2.88;1.40;;;;;;;;;;4997170;28;20057;-61
2022/02/08 20:40:53;;;;;;;3.78;1.40;;;;;;;;;;5003086;28;20065;-59
2022/02/08 20:43:21;;;;;;;7.78;1.75;;;;;;;;;;5001009;28;20148;-59
2022/02/08 20:45:48;;;;;;;3.07;1.30;;;;;;;;;;5017011;28;20140;-62
2022/02/08 20:48:15;;;;;;;5.88;1.95;;;;;;;;;;5014868;28;20388;-61